Portada
METAR-TAF:

METAR-TAF

Aeroports :

Madrid-Torrejón, Espanya

latitud: 40-29N, longitud: 003-27W, altitud: 607 m

Observació

L'informe es va fer fa 51 minuts, a les 10:22 UTC
Vent 1 kt del Sud-Oest
Temperatura 6°C
Humitat 87%
Pressió 1028 hPa
Visibilitat 10 km o més
Escasses núvols a una alçada de 1100 ft
Núvols disperses a una alçada de 4500 ft

METAR: LETO 151022Z 22001KT 9999 FEW011 SCT045 06/04 Q1028 NOSIG

Hora: 12:13 (11:13 UTC)

Pronòstic

L'informe es va fer fa 44 minuts, a les 10:29 UTC
Pronòstic vàlid del 15 a les 10 UTC al 16 a les 06 UTC
Vent 5 kt amb direcció variable
Visibilitat 10 km o més
Núvols disperses a una alçada de 1000 ft
Núvols disperses a una alçada de 4500 ft
Temporalment
l' 15 a les 18 UTC al 16 a les 06 UTC
Visibilitat: 3000 m
Cel ennuvolat a una alçada de 800 ft
pluja

TAF: LETO 151029Z 1510/1606 VRB05KT 9999 SCT010 SCT045 TX11/1515Z TNM04/1606Z TEMPO 1518/1606 3000 RA BKN008

Observacions i pronòstics meteorològics de més de 4000 aeroports (METAR i TAF).

Les estacions disponibles són els punts grocs i vermells al mapa.

Posi el ratolí al punt desitjat per veure el nom de l'estació.

Feu clic per veure les observacions i els pronòstics meteorològics.

Per canviar el mapa: feu clic els botons verds amb una creu de color negre per apropar; al botó verd amb un guió per allunyar la imatge; o en les fletxes verdes per a mapes adjacents.


METAR-TAF: